createdAt,value
2022-10-02T00:02:44.344Z,3.10
2022-10-02T00:05:46.574Z,3.53
2022-10-02T00:08:49.092Z,3.53
2022-10-02T00:11:53.017Z,2.35
2022-10-02T00:14:55.936Z,3.97
2022-10-02T00:17:58.468Z,2.78
2022-10-02T00:21:01.389Z,2.53
2022-10-02T00:24:03.617Z,2.83
2022-10-02T00:27:06.049Z,2.85
2022-10-02T00:30:08.405Z,2.88
2022-10-02T00:33:11.300Z,3.55
2022-10-02T00:36:14.465Z,3.10
2022-10-02T00:39:17.317Z,2.47
2022-10-02T00:42:19.848Z,2.80
2022-10-02T00:45:22.522Z,2.80
2022-10-02T00:48:24.678Z,2.00
2022-10-02T00:51:27.219Z,3.47
2022-10-02T00:54:29.982Z,2.67
2022-10-02T00:57:32.508Z,2.00
2022-10-02T01:00:35.475Z,3.05
2022-10-02T01:03:38.494Z,1.92
2022-10-02T01:06:41.765Z,3.75
2022-10-02T01:09:44.364Z,2.28
2022-10-02T01:12:46.869Z,2.17
2022-10-02T01:15:49.278Z,2.95
2022-10-02T01:18:52.180Z,2.03
2022-10-02T01:21:55.147Z,2.33
2022-10-02T01:24:57.176Z,2.08
2022-10-02T01:27:59.457Z,2.80
2022-10-02T01:31:01.792Z,1.80
2022-10-02T01:34:04.626Z,2.17
2022-10-02T01:37:07.099Z,2.38
2022-10-02T01:40:09.790Z,2.13
2022-10-02T01:43:12.537Z,2.25
2022-10-02T01:46:15.103Z,1.98
2022-10-02T01:49:18.650Z,2.13
2022-10-02T01:52:21.252Z,2.00
2022-10-02T01:55:23.375Z,2.70
2022-10-02T01:58:26.274Z,1.77
2022-10-02T02:01:29.506Z,3.03
2022-10-02T02:04:32.337Z,1.98
2022-10-02T02:07:34.897Z,1.60
2022-10-02T02:10:37.761Z,3.03
2022-10-02T02:13:41.077Z,1.73
2022-10-02T02:16:43.994Z,1.77
2022-10-02T02:19:46.556Z,1.65
2022-10-02T02:22:49.656Z,1.60
2022-10-02T02:25:52.501Z,1.88
2022-10-02T02:28:55.431Z,2.45
2022-10-02T02:31:58.524Z,3.00
2022-10-02T02:35:01.693Z,2.20
2022-10-02T02:38:04.441Z,2.92
2022-10-02T02:41:07.189Z,1.92
2022-10-02T02:44:10.007Z,2.25
2022-10-02T02:47:12.614Z,2.72
2022-10-02T02:50:15.199Z,2.42
2022-10-02T02:53:17.759Z,2.20
2022-10-02T02:56:20.303Z,2.50
2022-10-02T02:59:23.147Z,1.83
2022-10-02T03:02:26.083Z,1.88
2022-10-02T03:05:28.669Z,2.83
2022-10-02T03:08:31.520Z,1.67
2022-10-02T03:11:34.686Z,1.83
2022-10-02T03:14:37.169Z,2.05
2022-10-02T03:17:39.772Z,1.80
2022-10-02T03:20:42.232Z,1.83
2022-10-02T03:23:45.442Z,2.30
2022-10-02T03:26:48.228Z,2.17
2022-10-02T03:29:51.133Z,1.77
2022-10-02T03:32:53.942Z,2.42
2022-10-02T03:35:56.787Z,1.83
2022-10-02T03:39:24.360Z,2.08
2022-10-02T03:42:22.272Z,2.13
2022-10-02T03:45:46.628Z,1.25
2022-10-02T03:48:47.078Z,2.47
2022-10-02T03:51:49.700Z,2.25
2022-10-02T03:54:52.331Z,2.47
2022-10-02T03:57:54.500Z,1.48
2022-10-02T04:00:57.298Z,1.92
2022-10-02T04:03:59.729Z,2.60
2022-10-02T04:07:02.232Z,1.30
2022-10-02T04:10:05.435Z,2.03
2022-10-02T04:13:08.548Z,3.05
2022-10-02T04:16:11.844Z,2.80
2022-10-02T04:19:14.740Z,2.15
2022-10-02T04:22:17.792Z,2.45
2022-10-02T04:25:20.546Z,1.83
2022-10-02T04:28:23.451Z,2.42
2022-10-02T04:31:25.934Z,1.92
2022-10-02T04:34:28.275Z,1.98
2022-10-02T04:37:30.823Z,1.50
2022-10-02T04:40:33.790Z,3.28
2022-10-02T04:43:36.620Z,2.15
2022-10-02T04:46:38.911Z,2.50
2022-10-02T04:49:41.698Z,2.53
2022-10-02T04:52:44.294Z,2.78
2022-10-02T04:55:46.846Z,1.52
2022-10-02T04:58:48.964Z,1.60
2022-10-02T05:01:51.662Z,1.65
2022-10-02T05:04:53.774Z,2.20
2022-10-02T05:07:56.358Z,2.13
2022-10-02T05:10:58.567Z,1.70
2022-10-02T05:14:02.093Z,2.42
2022-10-02T05:17:06.649Z,1.63
2022-10-02T05:20:09.815Z,2.28
2022-10-02T05:23:12.955Z,2.30
2022-10-02T05:26:15.748Z,2.60
2022-10-02T05:29:18.492Z,1.55
2022-10-02T05:32:21.664Z,2.03
2022-10-02T05:35:24.768Z,1.73
2022-10-02T05:38:27.529Z,3.45
2022-10-02T05:41:30.054Z,1.77
2022-10-02T05:44:32.537Z,2.22
2022-10-02T05:47:34.913Z,1.90
2022-10-02T05:50:37.473Z,2.33
2022-10-02T05:53:39.873Z,1.80
2022-10-02T05:56:42.249Z,1.50
2022-10-02T05:59:44.863Z,2.20
2022-10-02T06:02:47.832Z,1.80
2022-10-02T06:05:50.402Z,2.45
2022-10-02T06:08:53.620Z,2.45
2022-10-02T06:11:56.832Z,1.88
2022-10-02T06:14:59.510Z,2.47
2022-10-02T06:18:02.464Z,2.42
2022-10-02T06:21:05.408Z,2.17
2022-10-02T06:24:08.279Z,2.35
2022-10-02T06:27:10.763Z,2.75
2022-10-02T06:30:13.281Z,2.05
2022-10-02T06:33:16.172Z,1.83
2022-10-02T06:36:18.837Z,1.45
2022-10-02T06:39:21.188Z,2.53
2022-10-02T06:42:24.162Z,2.28
2022-10-02T06:45:26.973Z,2.85
2022-10-02T06:48:30.026Z,2.58
2022-10-02T06:51:32.694Z,2.85
2022-10-02T06:54:35.543Z,2.13
2022-10-02T06:57:38.114Z,2.97
2022-10-02T07:00:41.768Z,1.50
2022-10-02T07:03:44.260Z,2.30
2022-10-02T07:06:47.069Z,1.48
2022-10-02T07:09:49.901Z,2.17
2022-10-02T07:12:52.560Z,1.88
2022-10-02T07:15:55.160Z,2.15
2022-10-02T07:18:57.581Z,2.42
2022-10-02T07:22:00.296Z,1.70
2022-10-02T07:25:03.575Z,2.05
2022-10-02T07:28:06.739Z,2.80
2022-10-02T07:31:09.913Z,1.63
2022-10-02T07:34:13.145Z,1.55
2022-10-02T07:37:15.992Z,1.83
2022-10-02T07:40:18.535Z,1.40
2022-10-02T07:43:21.088Z,2.03
2022-10-02T07:46:23.201Z,2.30
2022-10-02T07:49:26.429Z,2.22
2022-10-02T07:52:28.876Z,2.08
2022-10-02T07:55:31.046Z,2.08
2022-10-02T07:58:33.756Z,2.42
2022-10-02T08:01:37.129Z,1.50
2022-10-02T08:04:39.320Z,2.08
2022-10-02T08:07:41.442Z,2.38
2022-10-02T08:10:44.078Z,2.85
2022-10-02T08:13:46.174Z,1.73
2022-10-02T08:16:49.051Z,1.92
2022-10-02T08:19:52.045Z,1.55
2022-10-02T08:22:54.429Z,3.63
2022-10-02T08:25:57.432Z,2.72
2022-10-02T08:29:00.259Z,2.58
2022-10-02T08:32:02.907Z,2.65
2022-10-02T08:35:05.860Z,3.10
2022-10-02T08:38:08.495Z,2.28
2022-10-02T08:41:11.200Z,1.92
2022-10-02T08:44:14.036Z,2.55
2022-10-02T08:47:17.208Z,1.67
2022-10-02T08:50:19.877Z,3.92
2022-10-02T08:53:22.121Z,2.22
2022-10-02T08:56:24.899Z,2.30
2022-10-02T08:59:28.580Z,2.05
2022-10-02T09:02:31.765Z,2.72
2022-10-02T09:05:34.174Z,2.15
2022-10-02T09:08:36.710Z,2.45
2022-10-02T09:11:39.431Z,1.63
2022-10-02T09:14:42.278Z,2.90
2022-10-02T09:17:45.186Z,2.53
2022-10-02T09:20:48.097Z,1.75
2022-10-02T09:23:50.693Z,2.75
2022-10-02T09:26:53.177Z,2.78
2022-10-02T09:29:55.577Z,2.83
2022-10-02T09:32:57.739Z,1.67
2022-10-02T09:36:00.226Z,2.95
2022-10-02T09:39:03.072Z,2.67
2022-10-02T09:42:06.052Z,3.33
2022-10-02T09:45:09.206Z,2.50
2022-10-02T09:48:12.059Z,2.38
2022-10-02T09:51:14.656Z,2.13
2022-10-02T09:54:17.570Z,2.92
2022-10-02T09:57:20.737Z,3.30
2022-10-02T10:00:23.140Z,2.28
2022-10-02T10:03:26.210Z,3.08
2022-10-02T10:06:28.583Z,4.15
2022-10-02T10:09:31.072Z,2.10
2022-10-02T10:12:33.953Z,3.65
2022-10-02T10:15:36.068Z,2.13
2022-10-02T10:18:38.594Z,3.28
2022-10-02T10:21:41.222Z,2.60
2022-10-02T10:24:44.188Z,1.90
2022-10-02T10:27:47.057Z,1.83
2022-10-02T10:30:49.973Z,3.55
2022-10-02T10:33:53.151Z,1.98
2022-10-02T10:36:56.340Z,2.13
2022-10-02T10:39:59.459Z,2.40
2022-10-02T10:43:11.642Z,3.20
2022-10-02T10:46:17.095Z,3.40
2022-10-02T10:49:19.944Z,1.77
2022-10-02T10:52:22.396Z,2.33
2022-10-02T10:55:25.439Z,3.13
2022-10-02T10:58:27.841Z,2.70
2022-10-02T11:01:30.823Z,1.75
2022-10-02T11:04:34.167Z,3.03
2022-10-02T11:07:37.013Z,2.63
2022-10-02T11:10:39.531Z,2.10
2022-10-02T11:13:42.756Z,2.42
2022-10-02T11:16:45.707Z,1.98
2022-10-02T11:19:48.287Z,2.85
2022-10-02T11:22:51.262Z,3.08
2022-10-02T11:25:54.117Z,2.63
2022-10-02T11:28:56.530Z,3.03
2022-10-02T11:31:59.188Z,5.20
2022-10-02T11:35:01.914Z,6.07
2022-10-02T11:38:04.428Z,9.20
2022-10-02T11:41:06.608Z,6.78
2022-10-02T11:44:09.537Z,7.00
2022-10-02T11:47:11.907Z,4.95
2022-10-02T11:50:14.557Z,5.65
2022-10-02T11:53:17.497Z,6.13
2022-10-02T11:56:19.882Z,5.55
2022-10-02T11:59:22.776Z,4.05
2022-10-02T12:02:26.079Z,6.15
2022-10-02T12:05:28.992Z,4.28
2022-10-02T12:08:31.870Z,5.40
2022-10-02T12:11:35.141Z,4.88
2022-10-02T12:14:37.575Z,4.18
2022-10-02T12:17:40.174Z,5.47
2022-10-02T12:20:42.727Z,4.72
2022-10-02T12:23:46.555Z,7.97
2022-10-02T12:26:49.897Z,7.40
2022-10-02T12:29:53.120Z,4.32
2022-10-02T12:32:55.522Z,2.95
2022-10-02T12:35:58.419Z,4.80
2022-10-02T12:39:01.567Z,5.55
2022-10-02T12:42:04.662Z,3.20
2022-10-02T12:45:11.706Z,3.42
2022-10-02T12:48:14.717Z,4.07
2022-10-02T12:51:17.717Z,4.95
2022-10-02T12:54:20.408Z,4.40
2022-10-02T12:57:23.593Z,3.20
2022-10-02T13:00:26.780Z,4.35
2022-10-02T13:03:29.623Z,4.10
2022-10-02T13:06:31.748Z,3.95
2022-10-02T13:09:34.617Z,5.65
2022-10-02T13:12:37.028Z,3.78
2022-10-02T13:15:39.533Z,3.78
2022-10-02T13:18:42.390Z,3.97
2022-10-02T13:21:45.659Z,4.22
2022-10-02T13:24:48.537Z,3.85
2022-10-02T13:27:51.162Z,3.95
2022-10-02T13:30:53.748Z,3.25
2022-10-02T13:33:56.384Z,3.67
2022-10-02T13:36:59.292Z,2.70
2022-10-02T13:40:02.394Z,6.30
2022-10-02T13:43:04.745Z,6.75
2022-10-02T13:46:07.670Z,4.00
2022-10-02T13:49:10.876Z,3.70
2022-10-02T13:52:13.708Z,3.88
2022-10-02T13:55:16.551Z,3.38
2022-10-02T13:58:19.453Z,3.78
2022-10-02T14:01:22.107Z,3.70
2022-10-02T14:04:24.984Z,3.55
2022-10-02T14:07:27.370Z,3.92
2022-10-02T14:10:29.970Z,3.55
2022-10-02T14:13:32.330Z,5.95
2022-10-02T14:16:35.245Z,6.10
2022-10-02T14:19:37.923Z,3.65
2022-10-02T14:22:40.825Z,9.15
2022-10-02T14:25:43.633Z,4.18
2022-10-02T14:28:46.097Z,7.82
2022-10-02T14:31:49.266Z,3.60
2022-10-02T14:34:51.850Z,6.50
2022-10-02T14:37:54.562Z,6.80
2022-10-02T14:40:57.342Z,3.78
2022-10-02T14:44:00.724Z,7.03
2022-10-02T14:47:03.873Z,4.55
2022-10-02T14:50:07.147Z,4.15
2022-10-02T14:53:09.989Z,5.93
2022-10-02T14:56:13.184Z,3.58
2022-10-02T14:59:16.028Z,4.63
2022-10-02T15:02:18.573Z,3.65
2022-10-02T15:05:20.981Z,3.42
2022-10-02T15:08:23.530Z,4.70
2022-10-02T15:11:26.401Z,3.28
2022-10-02T15:14:29.106Z,4.45
2022-10-02T15:17:32.194Z,5.22
2022-10-02T15:20:34.996Z,6.00
2022-10-02T15:23:37.091Z,4.50
2022-10-02T15:26:40.028Z,4.75
2022-10-02T15:29:42.443Z,4.20
2022-10-02T15:32:45.140Z,4.07
2022-10-02T15:35:48.383Z,4.35
2022-10-02T15:38:50.874Z,4.03
2022-10-02T15:41:53.984Z,4.18
2022-10-02T15:44:57.119Z,3.75
2022-10-02T15:48:00.151Z,3.58
2022-10-02T15:51:02.948Z,4.07
2022-10-02T15:54:05.057Z,2.65
2022-10-02T15:57:07.898Z,3.95
2022-10-02T16:00:10.249Z,3.28
2022-10-02T16:03:15.209Z,3.63
2022-10-02T16:06:17.552Z,4.03
2022-10-02T16:09:20.869Z,2.67
2022-10-02T16:12:23.460Z,3.45
2022-10-02T16:15:26.048Z,2.25
2022-10-02T16:18:28.504Z,2.55
2022-10-02T16:21:30.909Z,3.88
2022-10-02T16:24:33.062Z,3.60
2022-10-02T16:27:36.164Z,4.18
2022-10-02T16:30:38.662Z,5.35
2022-10-02T16:33:41.589Z,2.47
2022-10-02T16:36:44.511Z,2.47
2022-10-02T16:39:47.114Z,2.58
2022-10-02T16:42:50.279Z,4.63
2022-10-02T16:45:53.124Z,3.97
2022-10-02T16:48:56.101Z,3.13
2022-10-02T16:51:58.838Z,4.32
2022-10-02T16:55:00.966Z,2.80
2022-10-02T16:58:03.136Z,3.28
2022-10-02T17:01:05.295Z,3.30
2022-10-02T17:04:08.024Z,4.07
2022-10-02T17:07:10.125Z,2.50
2022-10-02T17:10:18.090Z,3.28
2022-10-02T17:13:21.923Z,3.80
2022-10-02T17:16:24.844Z,2.25
2022-10-02T17:19:27.713Z,3.42
2022-10-02T17:22:30.526Z,2.22
2022-10-02T17:25:33.301Z,3.70
2022-10-02T17:28:36.205Z,3.85
2022-10-02T17:31:38.771Z,4.03
2022-10-02T17:34:41.559Z,3.22
2022-10-02T17:37:44.239Z,3.67
2022-10-02T17:40:46.844Z,3.53
2022-10-02T17:43:49.010Z,2.83
2022-10-02T17:46:51.929Z,2.60
2022-10-02T17:49:55.111Z,3.50
2022-10-02T17:52:58.276Z,2.97
2022-10-02T17:56:01.504Z,2.50
2022-10-02T17:59:04.857Z,4.30
2022-10-02T18:02:08.096Z,3.75
2022-10-02T18:05:11.258Z,2.97
2022-10-02T18:08:14.399Z,3.08
2022-10-02T18:11:17.256Z,3.70
2022-10-02T18:14:20.472Z,4.45
2022-10-02T18:17:22.880Z,3.20
2022-10-02T18:20:25.381Z,3.63
2022-10-02T18:23:28.160Z,2.83
2022-10-02T18:26:31.334Z,3.88
2022-10-02T18:29:34.784Z,3.00
2022-10-02T18:32:37.284Z,3.30
2022-10-02T18:35:40.300Z,3.58
2022-10-02T18:38:44.657Z,2.60
2022-10-02T18:41:47.792Z,1.40
2022-10-02T18:44:50.397Z,2.53
2022-10-02T18:47:53.302Z,3.40
2022-10-02T18:50:56.484Z,3.25
2022-10-02T18:53:59.410Z,2.38
2022-10-02T18:57:01.961Z,3.28
2022-10-02T19:00:04.436Z,3.38
2022-10-02T19:03:08.116Z,2.45
2022-10-02T19:06:10.680Z,2.88
2022-10-02T19:09:13.577Z,3.58
2022-10-02T19:12:16.383Z,3.15
2022-10-02T19:15:19.219Z,3.25
2022-10-02T19:18:21.770Z,2.75
2022-10-02T19:21:24.956Z,3.72
2022-10-02T19:24:27.993Z,3.30
2022-10-02T19:27:30.532Z,3.22
2022-10-02T19:30:33.159Z,2.60
2022-10-02T19:33:36.458Z,2.65
2022-10-02T19:36:38.863Z,2.60
2022-10-02T19:39:41.417Z,3.03
2022-10-02T19:42:43.969Z,3.28
2022-10-02T19:45:46.119Z,3.03
2022-10-02T19:48:48.817Z,4.25
2022-10-02T19:51:51.644Z,3.15
2022-10-02T19:54:54.334Z,3.30
2022-10-02T19:57:57.493Z,2.30
2022-10-02T20:01:00.811Z,2.58
2022-10-02T20:04:04.036Z,4.38
2022-10-02T20:07:06.943Z,2.67
2022-10-02T20:10:09.428Z,2.67
2022-10-02T20:13:12.641Z,4.03
2022-10-02T20:16:15.502Z,2.45
2022-10-02T20:19:18.213Z,2.60
2022-10-02T20:22:20.399Z,3.33
2022-10-02T20:25:22.937Z,4.00
2022-10-02T20:28:25.500Z,3.05
2022-10-02T20:31:28.306Z,4.20
2022-10-02T20:34:31.028Z,2.80
2022-10-02T20:37:33.891Z,2.40
2022-10-02T20:40:36.319Z,3.70
2022-10-02T20:43:38.664Z,3.97
2022-10-02T20:46:41.539Z,3.95
2022-10-02T20:49:44.258Z,3.50
2022-10-02T20:52:47.138Z,3.22
2022-10-02T20:55:49.797Z,2.33
2022-10-02T20:58:52.363Z,2.50
2022-10-02T21:01:55.332Z,2.58
2022-10-02T21:04:57.788Z,3.92
2022-10-02T21:08:00.291Z,3.75
2022-10-02T21:11:03.094Z,3.35
2022-10-02T21:14:05.646Z,2.58
2022-10-02T21:17:08.552Z,3.60
2022-10-02T21:20:12.263Z,3.22
2022-10-02T21:23:16.974Z,4.03
2022-10-02T21:26:20.225Z,3.72
2022-10-02T21:29:22.642Z,3.10
2022-10-02T21:32:25.069Z,3.83
2022-10-02T21:35:27.216Z,3.40
2022-10-02T21:38:29.836Z,4.65
2022-10-02T21:41:32.665Z,3.30
2022-10-02T21:44:35.704Z,3.95
2022-10-02T21:47:38.441Z,3.75
2022-10-02T21:50:41.064Z,4.30
2022-10-02T21:53:43.640Z,3.65
2022-10-02T21:56:49.696Z,3.75
2022-10-02T21:59:58.389Z,3.30
2022-10-02T22:03:00.926Z,3.45
2022-10-02T22:06:03.500Z,4.43
2022-10-02T22:09:06.298Z,4.53
2022-10-02T22:12:08.662Z,3.85
2022-10-02T22:15:11.548Z,3.15
2022-10-02T22:18:14.457Z,3.45
2022-10-02T22:21:17.372Z,4.40
2022-10-02T22:24:19.907Z,3.45
2022-10-02T22:27:22.210Z,3.38
2022-10-02T22:30:25.867Z,3.85
2022-10-02T22:33:28.983Z,3.75
2022-10-02T22:36:32.158Z,4.53
2022-10-02T22:39:35.016Z,3.13
2022-10-02T22:42:37.763Z,3.20
2022-10-02T22:45:41.111Z,3.58
2022-10-02T22:48:43.689Z,3.10
2022-10-02T22:51:45.869Z,3.70
2022-10-02T22:54:48.864Z,4.60
2022-10-02T22:57:52.086Z,3.85
2022-10-02T23:00:54.437Z,3.90
2022-10-02T23:03:57.309Z,3.47
2022-10-02T23:07:00.100Z,3.72
2022-10-02T23:10:02.516Z,3.63
2022-10-02T23:13:05.158Z,2.75
2022-10-02T23:16:08.387Z,3.03
2022-10-02T23:19:10.851Z,3.53
2022-10-02T23:22:13.304Z,4.15
2022-10-02T23:25:16.441Z,3.67
2022-10-02T23:28:19.216Z,5.32
2022-10-02T23:31:22.230Z,3.95
2022-10-02T23:34:25.109Z,3.33
2022-10-02T23:37:27.901Z,3.50
2022-10-02T23:40:30.355Z,2.92
2022-10-02T23:43:33.112Z,2.97
2022-10-02T23:46:36.081Z,3.83
2022-10-02T23:49:39.191Z,3.10
2022-10-02T23:52:41.833Z,3.80
2022-10-02T23:55:44.894Z,2.17
2022-10-02T23:58:48.027Z,3.50
